Elco, Pennsylvania
Current Conditions -  °F | °C
As of 5:53 PM on Friday 28 Nov 2014 (Local Time) from KAGC Reporting Station
Broken Clouds Broken Clouds  
Wind Chill: 18°   Ceiling: 3200
Heat Index: 26°   Visibility: 10mi
Dew Point: 14°   Wind: 7mph
Humidity: 60%   Direction: 230°SW
Pressure: 30.22"   Gusts: NA
Location:  40.08°N, 79.87°W
Report Text: KAGC 282253Z 23006KT 10SM BKN032 M03/M10 A3022 RMK AO2 SLP255 T10331100
Loading
Personal Weather Stations






























Interactive Weather Map New forecast layout! Learn more

10-Day Weather Forecast

Advertisements
Track Severe Weather on mobile